首页
METAR-TAF:

METAR-TAF

机场 :

桂林兩江國際機場

桂林, 中华人民共和国

纬度: 25-20N, 经度: 110-18E, 海拔: 166米

当前天气观测

该预报发布于42分钟前的14:00 UTC
静风
温度 17°C
湿度 94%
气压 1020 hPa
能見度: 3000
阴天层高于3600英尺
轻雾

METAR: ZGKL 231400Z 00000MPS 3000 BR OVC036 17/16 Q1020 NOSIG

时间: 22:42 (14:42 UTC)

预报

该预报发布于5小时和30分钟前的09:12 UTC
预报有效从23日的 12点(UTC)到 24日的 12点(UTC)
风速6节,风向东北
能見度: 4000
少量云层高于1000英尺
散云层高于2300英尺
阴天层高于4000英尺
轻雾
短暂存在
从 23日的 20点(UTC)到 23日的 24点(UTC)
能見度: 2500

TAF: ZGKL 230912Z 2312/2412 05003MPS 4000 BR FEW010 SCT023 OVC040 TX21/2408Z TN15/2322Z TEMPO 2320/2324 2500

超过4000个机场的气象观测和天气预报(METAR&TAF报告)。

可查询的气象台以黄色和红色小点在地图上表示。

将鼠标移到小点上方,可查看气象台名称。

然后点击查看天气观测和预报。

如需切换地图:点击带黑十字的绿色按钮放大地图;点击带横线的绿色按钮缩小地图;或者点击绿色箭头查看邻近地区的地图。


METAR-TAF: